sensor_id;sensor_type;location;lat;lon;timestamp;pressure;altitude;pressure_sealevel;temperature;humidity
45275;BME280;31019;43.780;25.948;2023-07-13T00:00:56;100962.91;;;22.87;100.00
45275;BME280;31019;43.780;25.948;2023-07-13T00:03:23;100976.47;;;22.43;100.00
45275;BME280;31019;43.780;25.948;2023-07-13T00:05:59;100957.84;;;22.75;100.00
45275;BME280;31019;43.780;25.948;2023-07-13T00:08:26;100968.81;;;22.99;100.00
45275;BME280;31019;43.780;25.948;2023-07-13T00:10:53;100954.88;;;22.77;100.00
45275;BME280;31019;43.780;25.948;2023-07-13T00:13:20;100968.13;;;22.78;100.00
45275;BME280;31019;43.780;25.948;2023-07-13T00:15:47;100969.41;;;22.41;100.00
45275;BME280;31019;43.780;25.948;2023-07-13T00:18:14;100965.47;;;22.73;100.00
45275;BME280;31019;43.780;25.948;2023-07-13T00:20:41;100962.66;;;22.83;100.00
45275;BME280;31019;43.780;25.948;2023-07-13T00:23:10;100954.53;;;22.89;100.00
45275;BME280;31019;43.780;25.948;2023-07-13T00:25:37;100970.63;;;22.70;100.00
45275;BME280;31019;43.780;25.948;2023-07-13T00:28:04;100954.69;;;22.63;100.00
45275;BME280;31019;43.780;25.948;2023-07-13T00:30:31;100962.28;;;22.61;100.00
45275;BME280;31019;43.780;25.948;2023-07-13T00:32:58;100954.66;;;22.68;100.00
45275;BME280;31019;43.780;25.948;2023-07-13T00:35:27;100958.69;;;22.76;100.00
45275;BME280;31019;43.780;25.948;2023-07-13T00:37:53;100954.78;;;22.87;100.00
45275;BME280;31019;43.780;25.948;2023-07-13T00:40:23;100946.28;;;22.64;100.00
45275;BME280;31019;43.780;25.948;2023-07-13T00:42:51;100946.84;;;22.61;100.00
45275;BME280;31019;43.780;25.948;2023-07-13T00:48:25;100953.19;;;22.86;100.00
45275;BME280;31019;43.780;25.948;2023-07-13T00:50:55;100949.56;;;23.01;100.00
45275;BME280;31019;43.780;25.948;2023-07-13T00:53:24;100945.88;;;22.42;100.00
45275;BME280;31019;43.780;25.948;2023-07-13T00:55:55;100948.28;;;22.49;100.00
45275;BME280;31019;43.780;25.948;2023-07-13T00:58:23;100950.78;;;22.40;100.00
45275;BME280;31019;43.780;25.948;2023-07-13T01:00:51;100946.88;;;22.56;100.00
45275;BME280;31019;43.780;25.948;2023-07-13T01:03:18;100947.41;;;22.63;100.00
45275;BME280;31019;43.780;25.948;2023-07-13T01:05:47;100945.72;;;22.68;100.00
45275;BME280;31019;43.780;25.948;2023-07-13T01:08:16;100952.91;;;22.48;100.00
45275;BME280;31019;43.780;25.948;2023-07-13T01:10:51;100943.91;;;22.58;100.00
45275;BME280;31019;43.780;25.948;2023-07-13T01:13:19;100943.03;;;22.62;100.00
45275;BME280;31019;43.780;25.948;2023-07-13T01:15:48;100944.81;;;22.38;100.00
45275;BME280;31019;43.780;25.948;2023-07-13T01:18:18;100944.81;;;22.43;100.00
45275;BME280;31019;43.780;25.948;2023-07-13T01:20:51;100944.66;;;22.19;100.00
45275;BME280;31019;43.780;25.948;2023-07-13T01:23:18;100949.50;;;22.22;100.00
45275;BME280;31019;43.780;25.948;2023-07-13T01:25:45;100943.69;;;22.49;100.00
45275;BME280;31019;43.780;25.948;2023-07-13T01:28:12;100953.81;;;22.28;100.00
45275;BME280;31019;43.780;25.948;2023-07-13T01:30:40;100940.63;;;22.06;100.00
45275;BME280;31019;43.780;25.948;2023-07-13T01:33:12;100950.59;;;22.11;100.00
45275;BME280;31019;43.780;25.948;2023-07-13T01:35:39;100950.63;;;22.21;100.00
45275;BME280;31019;43.780;25.948;2023-07-13T01:38:08;100950.00;;;22.29;100.00
45275;BME280;31019;43.780;25.948;2023-07-13T01:40:37;100939.19;;;22.29;100.00
45275;BME280;31019;43.780;25.948;2023-07-13T01:43:05;100944.56;;;22.39;100.00
45275;BME280;31019;43.780;25.948;2023-07-13T01:45:32;100946.91;;;21.91;100.00
45275;BME280;31019;43.780;25.948;2023-07-13T01:47:59;100943.91;;;21.93;100.00
45275;BME280;31019;43.780;25.948;2023-07-13T01:50:26;100930.41;;;21.93;100.00
45275;BME280;31019;43.780;25.948;2023-07-13T01:52:54;100938.97;;;22.15;100.00
45275;BME280;31019;43.780;25.948;2023-07-13T01:55:22;100934.34;;;22.26;100.00
45275;BME280;31019;43.780;25.948;2023-07-13T01:57:49;100931.78;;;21.85;100.00
45275;BME280;31019;43.780;25.948;2023-07-13T02:00:17;100951.56;;;21.76;100.00
45275;BME280;31019;43.780;25.948;2023-07-13T02:02:43;100959.63;;;21.91;100.00
45275;BME280;31019;43.780;25.948;2023-07-13T02:05:11;100956.69;;;21.82;100.00
45275;BME280;31019;43.780;25.948;2023-07-13T02:07:38;100955.28;;;21.90;100.00
45275;BME280;31019;43.780;25.948;2023-07-13T02:10:06;100956.38;;;21.89;100.00
45275;BME280;31019;43.780;25.948;2023-07-13T02:12:34;100955.03;;;21.91;100.00
45275;BME280;31019;43.780;25.948;2023-07-13T02:15:01;100948.66;;;21.16;100.00
45275;BME280;31019;43.780;25.948;2023-07-13T02:17:28;100958.34;;;21.32;100.00
45275;BME280;31019;43.780;25.948;2023-07-13T02:19:55;100963.22;;;21.56;100.00
45275;BME280;31019;43.780;25.948;2023-07-13T02:22:22;100955.88;;;21.71;100.00
45275;BME280;31019;43.780;25.948;2023-07-13T02:24:49;100953.38;;;21.90;100.00
45275;BME280;31019;43.780;25.948;2023-07-13T02:27:16;100959.38;;;21.77;100.00
45275;BME280;31019;43.780;25.948;2023-07-13T02:29:44;100952.38;;;21.76;100.00
45275;BME280;31019;43.780;25.948;2023-07-13T02:32:11;100968.41;;;21.37;100.00
45275;BME280;31019;43.780;25.948;2023-07-13T02:34:38;100971.34;;;21.56;100.00
45275;BME280;31019;43.780;25.948;2023-07-13T02:37:05;100954.28;;;21.60;100.00
45275;BME280;31019;43.780;25.948;2023-07-13T02:39:32;100966.47;;;21.53;100.00
45275;BME280;31019;43.780;25.948;2023-07-13T02:41:59;100966.44;;;21.63;100.00
45275;BME280;31019;43.780;25.948;2023-07-13T02:44:26;100959.47;;;21.41;100.00
45275;BME280;31019;43.780;25.948;2023-07-13T02:46:55;100972.16;;;21.46;100.00
45275;BME280;31019;43.780;25.948;2023-07-13T02:49:21;100954.31;;;21.24;100.00
45275;BME280;31019;43.780;25.948;2023-07-13T02:51:48;100952.16;;;21.26;100.00
45275;BME280;31019;43.780;25.948;2023-07-13T02:54:15;100958.34;;;21.27;100.00
45275;BME280;31019;43.780;25.948;2023-07-13T02:56:42;100964.84;;;21.26;100.00
45275;BME280;31019;43.780;25.948;2023-07-13T02:59:10;100960.28;;;21.21;100.00
45275;BME280;31019;43.780;25.948;2023-07-13T03:01:37;100958.09;;;21.34;100.00
45275;BME280;31019;43.780;25.948;2023-07-13T03:04:05;100965.66;;;21.26;100.00
45275;BME280;31019;43.780;25.948;2023-07-13T03:06:33;100960.53;;;21.25;100.00
45275;BME280;31019;43.780;25.948;2023-07-13T03:09:00;100956.75;;;21.16;100.00
45275;BME280;31019;43.780;25.948;2023-07-13T03:11:27;100957.84;;;21.10;100.00
45275;BME280;31019;43.780;25.948;2023-07-13T03:13:55;100958.66;;;20.95;100.00
45275;BME280;31019;43.780;25.948;2023-07-13T03:16:21;100959.44;;;21.26;100.00
45275;BME280;31019;43.780;25.948;2023-07-13T03:18:49;100948.63;;;21.05;100.00
45275;BME280;31019;43.780;25.948;2023-07-13T03:21:17;100959.19;;;21.07;100.00
45275;BME280;31019;43.780;25.948;2023-07-13T03:23:46;100951.34;;;21.46;100.00
45275;BME280;31019;43.780;25.948;2023-07-13T03:26:16;100959.16;;;21.33;100.00
45275;BME280;31019;43.780;25.948;2023-07-13T03:28:44;100954.84;;;21.32;100.00
45275;BME280;31019;43.780;25.948;2023-07-13T03:31:12;100948.06;;;21.60;100.00
45275;BME280;31019;43.780;25.948;2023-07-13T03:33:40;100948.66;;;21.52;100.00
45275;BME280;31019;43.780;25.948;2023-07-13T03:36:14;100959.94;;;21.79;100.00
45275;BME280;31019;43.780;25.948;2023-07-13T03:38:46;100955.28;;;21.90;100.00
45275;BME280;31019;43.780;25.948;2023-07-13T03:41:13;100954.53;;;21.79;100.00
45275;BME280;31019;43.780;25.948;2023-07-13T03:43:40;100948.22;;;21.99;100.00
45275;BME280;31019;43.780;25.948;2023-07-13T03:46:07;100954.94;;;22.17;100.00
45275;BME280;31019;43.780;25.948;2023-07-13T03:48:34;100952.75;;;22.14;100.00
45275;BME280;31019;43.780;25.948;2023-07-13T03:51:01;100950.06;;;22.19;100.00
45275;BME280;31019;43.780;25.948;2023-07-13T03:53:28;100948.06;;;22.40;100.00
45275;BME280;31019;43.780;25.948;2023-07-13T03:55:56;100954.28;;;22.40;100.00
45275;BME280;31019;43.780;25.948;2023-07-13T03:58:26;100949.91;;;22.45;100.00
45275;BME280;31019;43.780;25.948;2023-07-13T04:00:54;100955.00;;;22.56;100.00
45275;BME280;31019;43.780;25.948;2023-07-13T04:03:22;100947.91;;;22.66;100.00
45275;BME280;31019;43.780;25.948;2023-07-13T04:05:49;100955.13;;;22.75;100.00
45275;BME280;31019;43.780;25.948;2023-07-13T04:08:16;100954.53;;;22.83;100.00
45275;BME280;31019;43.780;25.948;2023-07-13T04:10:43;100950.47;;;22.86;100.00
45275;BME280;31019;43.780;25.948;2023-07-13T04:13:11;100953.66;;;22.93;100.00
45275;BME280;31019;43.780;25.948;2023-07-13T04:15:38;100957.94;;;23.04;100.00
45275;BME280;31019;43.780;25.948;2023-07-13T04:18:06;100954.28;;;23.19;100.00
45275;BME280;31019;43.780;25.948;2023-07-13T04:20:33;100960.19;;;23.26;100.00
45275;BME280;31019;43.780;25.948;2023-07-13T04:22:59;100964.88;;;23.45;100.00
45275;BME280;31019;43.780;25.948;2023-07-13T04:25:26;100964.56;;;23.51;100.00
45275;BME280;31019;43.780;25.948;2023-07-13T04:27:53;100958.81;;;23.58;100.00
45275;BME280;31019;43.780;25.948;2023-07-13T04:30:22;100964.91;;;23.69;100.00
45275;BME280;31019;43.780;25.948;2023-07-13T04:32:51;100968.59;;;23.83;100.00
45275;BME280;31019;43.780;25.948;2023-07-13T04:35:19;100970.53;;;24.02;100.00
45275;BME280;31019;43.780;25.948;2023-07-13T04:37:47;100967.38;;;23.94;100.00
45275;BME280;31019;43.780;25.948;2023-07-13T04:40:16;100960.88;;;24.14;100.00
45275;BME280;31019;43.780;25.948;2023-07-13T04:42:43;100971.09;;;24.22;100.00
45275;BME280;31019;43.780;25.948;2023-07-13T04:45:10;100961.09;;;24.42;100.00
45275;BME280;31019;43.780;25.948;2023-07-13T04:47:39;100980.69;;;24.58;100.00
45275;BME280;31019;43.780;25.948;2023-07-13T04:50:07;100982.69;;;24.52;100.00
45275;BME280;31019;43.780;25.948;2023-07-13T04:52:34;100977.63;;;24.45;100.00
45275;BME280;31019;43.780;25.948;2023-07-13T04:55:01;100972.56;;;24.58;100.00
45275;BME280;31019;43.780;25.948;2023-07-13T04:57:28;100982.28;;;24.78;100.00
45275;BME280;31019;43.780;25.948;2023-07-13T04:59:55;100976.00;;;24.82;100.00
45275;BME280;31019;43.780;25.948;2023-07-13T05:02:22;100969.78;;;24.96;100.00
45275;BME280;31019;43.780;25.948;2023-07-13T05:04:50;100968.31;;;25.22;100.00
45275;BME280;31019;43.780;25.948;2023-07-13T05:07:17;100964.56;;;25.18;100.00
45275;BME280;31019;43.780;25.948;2023-07-13T05:09:44;100970.28;;;25.49;100.00
45275;BME280;31019;43.780;25.948;2023-07-13T05:12:11;100969.63;;;25.39;100.00
45275;BME280;31019;43.780;25.948;2023-07-13T05:14:38;100971.50;;;25.57;100.00
45275;BME280;31019;43.780;25.948;2023-07-13T05:17:04;100973.16;;;25.86;100.00
45275;BME280;31019;43.780;25.948;2023-07-13T05:19:32;100975.66;;;25.96;100.00
45275;BME280;31019;43.780;25.948;2023-07-13T05:22:00;100971.94;;;25.92;100.00
45275;BME280;31019;43.780;25.948;2023-07-13T05:24:28;100980.81;;;25.97;100.00
45275;BME280;31019;43.780;25.948;2023-07-13T05:26:55;100974.94;;;26.04;100.00
45275;BME280;31019;43.780;25.948;2023-07-13T05:29:22;100978.47;;;26.18;100.00
45275;BME280;31019;43.780;25.948;2023-07-13T05:31:50;100982.78;;;26.33;100.00
45275;BME280;31019;43.780;25.948;2023-07-13T05:34:17;100976.91;;;26.54;100.00
45275;BME280;31019;43.780;25.948;2023-07-13T05:36:44;100975.63;;;26.73;100.00
45275;BME280;31019;43.780;25.948;2023-07-13T05:39:12;100973.41;;;26.76;100.00
45275;BME280;31019;43.780;25.948;2023-07-13T05:41:39;100967.97;;;26.98;100.00
45275;BME280;31019;43.780;25.948;2023-07-13T05:44:06;100971.34;;;27.17;100.00
45275;BME280;31019;43.780;25.948;2023-07-13T05:46:33;100967.72;;;27.31;100.00
45275;BME280;31019;43.780;25.948;2023-07-13T05:49:00;100969.53;;;27.44;100.00
45275;BME280;31019;43.780;25.948;2023-07-13T05:51:28;100969.97;;;27.60;100.00
45275;BME280;31019;43.780;25.948;2023-07-13T05:53:55;100970.84;;;27.78;100.00
45275;BME280;31019;43.780;25.948;2023-07-13T05:56:24;100964.38;;;27.74;100.00
45275;BME280;31019;43.780;25.948;2023-07-13T05:58:52;100974.94;;;28.06;100.00
45275;BME280;31019;43.780;25.948;2023-07-13T06:01:19;100974.31;;;28.18;100.00
45275;BME280;31019;43.780;25.948;2023-07-13T06:03:47;100975.16;;;28.27;100.00
45275;BME280;31019;43.780;25.948;2023-07-13T06:06:15;100968.38;;;28.25;100.00
45275;BME280;31019;43.780;25.948;2023-07-13T06:08:42;100974.66;;;28.34;100.00
45275;BME280;31019;43.780;25.948;2023-07-13T06:11:13;100976.97;;;28.49;100.00
45275;BME280;31019;43.780;25.948;2023-07-13T06:13:42;100982.13;;;28.60;100.00
45275;BME280;31019;43.780;25.948;2023-07-13T06:16:09;100988.53;;;28.90;100.00
45275;BME280;31019;43.780;25.948;2023-07-13T06:18:37;100979.84;;;28.88;100.00
45275;BME280;31019;43.780;25.948;2023-07-13T06:21:08;100985.94;;;29.19;100.00
45275;BME280;31019;43.780;25.948;2023-07-13T06:23:35;100975.50;;;29.13;100.00
45275;BME280;31019;43.780;25.948;2023-07-13T06:26:03;100980.31;;;28.98;100.00
45275;BME280;31019;43.780;25.948;2023-07-13T06:28:31;100977.59;;;28.90;100.00
45275;BME280;31019;43.780;25.948;2023-07-13T06:31:00;100975.22;;;29.61;100.00
45275;BME280;31019;43.780;25.948;2023-07-13T06:33:27;100981.19;;;29.93;100.00
45275;BME280;31019;43.780;25.948;2023-07-13T06:35:54;100975.22;;;29.53;100.00
45275;BME280;31019;43.780;25.948;2023-07-13T06:38:21;100981.16;;;30.02;100.00
45275;BME280;31019;43.780;25.948;2023-07-13T06:40:48;100975.91;;;29.41;100.00
45275;BME280;31019;43.780;25.948;2023-07-13T06:43:15;100984.84;;;28.86;100.00
45275;BME280;31019;43.780;25.948;2023-07-13T06:45:45;100982.25;;;29.71;100.00
45275;BME280;31019;43.780;25.948;2023-07-13T06:48:16;100981.19;;;30.23;100.00
45275;BME280;31019;43.780;25.948;2023-07-13T06:50:43;100973.78;;;29.47;100.00
45275;BME280;31019;43.780;25.948;2023-07-13T06:53:10;100968.31;;;29.94;100.00
45275;BME280;31019;43.780;25.948;2023-07-13T06:55:37;100967.81;;;29.92;100.00
45275;BME280;31019;43.780;25.948;2023-07-13T06:58:05;100965.69;;;29.67;100.00
45275;BME280;31019;43.780;25.948;2023-07-13T07:00:32;100971.19;;;30.69;100.00
45275;BME280;31019;43.780;25.948;2023-07-13T07:03:00;100976.31;;;30.91;100.00
45275;BME280;31019;43.780;25.948;2023-07-13T07:05:28;100968.59;;;31.06;100.00
45275;BME280;31019;43.780;25.948;2023-07-13T07:07:55;100963.94;;;31.18;100.00
45275;BME280;31019;43.780;25.948;2023-07-13T07:10:22;100972.81;;;31.36;100.00
45275;BME280;31019;43.780;25.948;2023-07-13T07:12:49;100958.31;;;31.02;100.00
45275;BME280;31019;43.780;25.948;2023-07-13T07:15:17;100963.56;;;30.53;100.00
45275;BME280;31019;43.780;25.948;2023-07-13T07:17:44;100969.44;;;31.31;100.00
45275;BME280;31019;43.780;25.948;2023-07-13T07:20:12;100970.47;;;30.60;100.00
45275;BME280;31019;43.780;25.948;2023-07-13T07:22:40;100971.94;;;30.57;100.00
45275;BME280;31019;43.780;25.948;2023-07-13T07:25:07;100960.09;;;30.44;100.00
45275;BME280;31019;43.780;25.948;2023-07-13T07:27:34;100961.94;;;30.73;100.00
45275;BME280;31019;43.780;25.948;2023-07-13T07:30:01;100958.84;;;31.29;100.00
45275;BME280;31019;43.780;25.948;2023-07-13T07:32:29;100951.56;;;31.94;100.00
45275;BME280;31019;43.780;25.948;2023-07-13T07:34:57;100957.72;;;30.76;100.00
45275;BME280;31019;43.780;25.948;2023-07-13T07:37:24;100954.47;;;30.83;100.00
45275;BME280;31019;43.780;25.948;2023-07-13T07:39:52;100949.75;;;29.99;100.00
45275;BME280;31019;43.780;25.948;2023-07-13T07:42:19;100952.19;;;30.64;100.00
45275;BME280;31019;43.780;25.948;2023-07-13T07:44:46;100946.94;;;29.87;100.00
45275;BME280;31019;43.780;25.948;2023-07-13T07:47:13;100954.75;;;30.27;100.00
45275;BME280;31019;43.780;25.948;2023-07-13T07:49:40;100956.09;;;30.21;100.00
45275;BME280;31019;43.780;25.948;2023-07-13T07:52:07;100954.25;;;31.33;100.00
45275;BME280;31019;43.780;25.948;2023-07-13T07:54:34;100950.41;;;32.08;100.00
45275;BME280;31019;43.780;25.948;2023-07-13T07:57:03;100948.00;;;31.69;100.00
45275;BME280;31019;43.780;25.948;2023-07-13T07:59:29;100953.66;;;31.15;100.00
45275;BME280;31019;43.780;25.948;2023-07-13T08:01:56;100951.56;;;31.58;100.00
45275;BME280;31019;43.780;25.948;2023-07-13T08:04:23;100954.22;;;31.91;100.00
45275;BME280;31019;43.780;25.948;2023-07-13T08:06:50;100952.34;;;31.70;100.00
45275;BME280;31019;43.780;25.948;2023-07-13T08:09:17;100958.75;;;32.24;100.00
45275;BME280;31019;43.780;25.948;2023-07-13T08:11:44;100948.03;;;31.12;100.00
45275;BME280;31019;43.780;25.948;2023-07-13T08:14:12;100957.06;;;30.58;100.00
45275;BME280;31019;43.780;25.948;2023-07-13T08:16:39;100948.81;;;31.82;100.00
45275;BME280;31019;43.780;25.948;2023-07-13T08:19:06;100970.34;;;30.05;100.00
45275;BME280;31019;43.780;25.948;2023-07-13T08:21:33;100965.41;;;31.16;100.00
45275;BME280;31019;43.780;25.948;2023-07-13T08:24:00;100968.56;;;30.01;100.00
45275;BME280;31019;43.780;25.948;2023-07-13T08:26:30;100957.91;;;30.92;100.00
45275;BME280;31019;43.780;25.948;2023-07-13T08:28:56;100964.50;;;30.07;100.00
45275;BME280;31019;43.780;25.948;2023-07-13T08:31:25;100952.34;;;31.83;100.00
45275;BME280;31019;43.780;25.948;2023-07-13T08:33:52;100957.16;;;32.10;100.00
45275;BME280;31019;43.780;25.948;2023-07-13T08:36:19;100952.88;;;30.82;100.00
45275;BME280;31019;43.780;25.948;2023-07-13T08:38:45;100953.94;;;30.26;100.00
45275;BME280;31019;43.780;25.948;2023-07-13T08:41:21;100947.13;;;32.43;100.00
45275;BME280;31019;43.780;25.948;2023-07-13T08:43:51;100951.19;;;33.33;100.00
45275;BME280;31019;43.780;25.948;2023-07-13T08:46:21;100950.19;;;31.52;100.00
45275;BME280;31019;43.780;25.948;2023-07-13T08:48:55;100951.63;;;30.91;100.00
45275;BME280;31019;43.780;25.948;2023-07-13T08:51:34;100949.97;;;31.93;100.00
45275;BME280;31019;43.780;25.948;2023-07-13T08:54:07;100948.91;;;29.78;100.00
45275;BME280;31019;43.780;25.948;2023-07-13T08:56:37;100942.06;;;32.04;100.00
45275;BME280;31019;43.780;25.948;2023-07-13T08:59:10;100940.44;;;30.21;100.00
45275;BME280;31019;43.780;25.948;2023-07-13T09:01:49;100938.09;;;29.81;100.00
45275;BME280;31019;43.780;25.948;2023-07-13T09:04:25;100933.63;;;29.30;100.00
45275;BME280;31019;43.780;25.948;2023-07-13T09:07:02;100927.00;;;29.78;100.00
45275;BME280;31019;43.780;25.948;2023-07-13T09:09:41;100921.44;;;32.23;100.00
45275;BME280;31019;43.780;25.948;2023-07-13T09:12:16;100921.59;;;31.65;100.00
45275;BME280;31019;43.780;25.948;2023-07-13T09:14:47;100915.56;;;31.59;100.00
45275;BME280;31019;43.780;25.948;2023-07-13T09:17:17;100917.84;;;32.22;100.00
45275;BME280;31019;43.780;25.948;2023-07-13T09:19:53;100917.81;;;31.94;100.00
45275;BME280;31019;43.780;25.948;2023-07-13T09:22:22;100905.25;;;33.37;100.00
45275;BME280;31019;43.780;25.948;2023-07-13T09:24:58;100918.34;;;32.80;100.00
45275;BME280;31019;43.780;25.948;2023-07-13T09:27:30;100915.94;;;33.55;100.00
45275;BME280;31019;43.780;25.948;2023-07-13T09:30:17;100912.53;;;33.77;100.00
45275;BME280;31019;43.780;25.948;2023-07-13T09:32:51;100927.13;;;32.98;100.00
45275;BME280;31019;43.780;25.948;2023-07-13T09:35:23;100929.13;;;31.43;100.00
45275;BME280;31019;43.780;25.948;2023-07-13T09:37:57;100933.03;;;30.97;100.00
45275;BME280;31019;43.780;25.948;2023-07-13T09:40:30;100934.19;;;31.66;100.00
45275;BME280;31019;43.780;25.948;2023-07-13T09:43:00;100932.88;;;33.25;100.00
45275;BME280;31019;43.780;25.948;2023-07-13T09:45:36;100937.50;;;32.49;100.00
45275;BME280;31019;43.780;25.948;2023-07-13T09:48:05;100924.84;;;32.88;100.00
45275;BME280;31019;43.780;25.948;2023-07-13T09:50:34;100936.59;;;33.48;100.00
45275;BME280;31019;43.780;25.948;2023-07-13T09:53:02;100931.03;;;34.31;100.00
45275;BME280;31019;43.780;25.948;2023-07-13T09:55:34;100941.84;;;34.40;100.00
45275;BME280;31019;43.780;25.948;2023-07-13T09:58:10;100930.19;;;35.08;100.00
45275;BME280;31019;43.780;25.948;2023-07-13T10:00:38;100929.78;;;33.26;100.00
45275;BME280;31019;43.780;25.948;2023-07-13T10:03:16;100924.22;;;34.06;100.00
45275;BME280;31019;43.780;25.948;2023-07-13T10:05:45;100920.56;;;33.35;100.00
45275;BME280;31019;43.780;25.948;2023-07-13T10:08:21;100922.28;;;30.71;100.00
45275;BME280;31019;43.780;25.948;2023-07-13T10:10:53;100920.72;;;33.26;100.00
45275;BME280;31019;43.780;25.948;2023-07-13T10:13:29;100917.56;;;33.91;100.00
45275;BME280;31019;43.780;25.948;2023-07-13T10:15:58;100917.53;;;35.30;100.00
45275;BME280;31019;43.780;25.948;2023-07-13T10:18:26;100923.28;;;34.76;100.00
45275;BME280;31019;43.780;25.948;2023-07-13T10:21:10;100919.78;;;33.85;100.00
45275;BME280;31019;43.780;25.948;2023-07-13T10:23:39;100919.28;;;34.34;100.00
45275;BME280;31019;43.780;25.948;2023-07-13T10:26:13;100920.44;;;35.15;100.00
45275;BME280;31019;43.780;25.948;2023-07-13T10:28:42;100921.00;;;34.04;100.00
45275;BME280;31019;43.780;25.948;2023-07-13T10:31:14;100922.13;;;34.38;100.00
45275;BME280;31019;43.780;25.948;2023-07-13T10:33:42;100924.09;;;34.57;100.00
45275;BME280;31019;43.780;25.948;2023-07-13T10:36:20;100914.25;;;35.71;100.00
45275;BME280;31019;43.780;25.948;2023-07-13T10:38:50;100909.31;;;36.10;100.00
45275;BME280;31019;43.780;25.948;2023-07-13T10:41:20;100918.47;;;35.91;96.66
45275;BME280;31019;43.780;25.948;2023-07-13T10:43:52;100903.34;;;35.55;100.00
45275;BME280;31019;43.780;25.948;2023-07-13T10:46:23;100903.38;;;34.86;100.00
45275;BME280;31019;43.780;25.948;2023-07-13T10:48:55;100903.19;;;34.17;100.00
45275;BME280;31019;43.780;25.948;2023-07-13T10:51:26;100891.78;;;33.32;100.00
45275;BME280;31019;43.780;25.948;2023-07-13T10:54:19;100890.88;;;35.15;100.00
45275;BME280;31019;43.780;25.948;2023-07-13T10:56:50;100877.53;;;34.98;100.00
45275;BME280;31019;43.780;25.948;2023-07-13T10:59:23;100869.22;;;35.17;98.94
45275;BME280;31019;43.780;25.948;2023-07-13T11:01:57;100863.66;;;35.93;92.67
45275;BME280;31019;43.780;25.948;2023-07-13T11:04:26;100863.63;;;37.46;68.93
45275;BME280;31019;43.780;25.948;2023-07-13T11:06:59;100858.22;;;36.68;75.63
45275;BME280;31019;43.780;25.948;2023-07-13T11:09:38;100862.72;;;36.87;70.75
45275;BME280;31019;43.780;25.948;2023-07-13T11:12:26;100856.72;;;37.22;66.26
45275;BME280;31019;43.780;25.948;2023-07-13T11:15:05;100855.13;;;37.25;73.31
45275;BME280;31019;43.780;25.948;2023-07-13T11:17:46;100852.97;;;37.52;75.33
45275;BME280;31019;43.780;25.948;2023-07-13T11:20:33;100853.56;;;37.86;72.16
45275;BME280;31019;43.780;25.948;2023-07-13T11:23:18;100851.16;;;36.74;76.37
45275;BME280;31019;43.780;25.948;2023-07-13T11:25:46;100844.25;;;37.50;72.08
45275;BME280;31019;43.780;25.948;2023-07-13T11:28:21;100841.16;;;37.62;71.65
45275;BME280;31019;43.780;25.948;2023-07-13T11:30:59;100841.94;;;37.59;64.08
45275;BME280;31019;43.780;25.948;2023-07-13T11:33:31;100842.63;;;35.05;95.97
45275;BME280;31019;43.780;25.948;2023-07-13T11:36:14;100820.78;;;37.36;74.79
45275;BME280;31019;43.780;25.948;2023-07-13T11:38:45;100816.25;;;37.69;68.20
45275;BME280;31019;43.780;25.948;2023-07-13T11:41:16;100815.66;;;37.31;68.58
45275;BME280;31019;43.780;25.948;2023-07-13T11:43:44;100805.34;;;38.12;60.76
45275;BME280;31019;43.780;25.948;2023-07-13T11:46:16;100809.72;;;38.24;59.05
45275;BME280;31019;43.780;25.948;2023-07-13T11:48:46;100810.09;;;38.01;65.64
45275;BME280;31019;43.780;25.948;2023-07-13T11:51:19;100788.94;;;37.68;59.87
45275;BME280;31019;43.780;25.948;2023-07-13T11:53:50;100796.44;;;37.67;57.32
45275;BME280;31019;43.780;25.948;2023-07-13T11:56:18;100803.72;;;37.97;54.66
45275;BME280;31019;43.780;25.948;2023-07-13T11:58:48;100800.47;;;36.26;80.45
45275;BME280;31019;43.780;25.948;2023-07-13T12:01:20;100796.50;;;36.60;75.55
45275;BME280;31019;43.780;25.948;2023-07-13T12:03:48;100795.88;;;38.20;59.41
45275;BME280;31019;43.780;25.948;2023-07-13T12:06:25;100790.00;;;38.43;51.44
45275;BME280;31019;43.780;25.948;2023-07-13T12:08:57;100782.91;;;36.89;65.74
45275;BME280;31019;43.780;25.948;2023-07-13T12:11:25;100778.84;;;38.22;55.93
45275;BME280;31019;43.780;25.948;2023-07-13T12:13:52;100773.31;;;38.40;50.42
45275;BME280;31019;43.780;25.948;2023-07-13T12:16:26;100780.38;;;38.12;52.22
45275;BME280;31019;43.780;25.948;2023-07-13T12:18:54;100784.69;;;37.92;56.48
45275;BME280;31019;43.780;25.948;2023-07-13T12:21:27;100780.63;;;37.68;60.92
45275;BME280;31019;43.780;25.948;2023-07-13T12:23:57;100781.25;;;38.48;47.20
45275;BME280;31019;43.780;25.948;2023-07-13T12:26:24;100780.41;;;38.34;42.56
45275;BME280;31019;43.780;25.948;2023-07-13T12:28:53;100776.41;;;37.99;46.55
45275;BME280;31019;43.780;25.948;2023-07-13T12:31:41;100774.94;;;38.77;42.67
45275;BME280;31019;43.780;25.948;2023-07-13T12:34:09;100782.38;;;38.04;48.93
45275;BME280;31019;43.780;25.948;2023-07-13T12:36:40;100774.94;;;38.44;44.78
45275;BME280;31019;43.780;25.948;2023-07-13T12:39:17;100775.41;;;37.52;51.36
45275;BME280;31019;43.780;25.948;2023-07-13T12:41:45;100766.63;;;38.59;44.86
45275;BME280;31019;43.780;25.948;2023-07-13T12:44:14;100768.19;;;38.42;44.72